sensor_id;sensor_type;location;lat;lon;timestamp;pressure;altitude;pressure_sealevel;temperature;humidity
56334;BME280;42240;53.626;55.886;2022-07-25T00:00:56;74052.25;;;-145.10;72.28
56334;BME280;42240;53.626;55.886;2022-07-25T00:02:31;74052.25;;;-145.10;72.30
56334;BME280;42240;53.626;55.886;2022-07-25T00:04:05;74056.19;;;-145.10;72.35
56334;BME280;42240;53.626;55.886;2022-07-25T00:05:43;74062.13;;;-145.10;72.48
56334;BME280;42240;53.626;55.886;2022-07-25T00:07:16;74058.19;;;-145.10;72.17
56334;BME280;42240;53.626;55.886;2022-07-25T00:08:50;74058.19;;;-145.10;72.32
56334;BME280;42240;53.626;55.886;2022-07-25T00:10:23;74056.19;;;-145.10;72.06
56334;BME280;42240;53.626;55.886;2022-07-25T00:11:57;74060.16;;;-145.10;72.23
56334;BME280;42240;53.626;55.886;2022-07-25T00:13:30;74081.88;;;-145.10;72.73
56334;BME280;42240;53.626;55.886;2022-07-25T00:15:07;74109.56;;;-145.10;73.85
56334;BME280;42240;53.626;55.886;2022-07-25T00:16:40;74119.44;;;-145.10;73.76
56334;BME280;42240;53.626;55.886;2022-07-25T00:18:15;74131.28;;;-145.10;73.99
56334;BME280;42240;53.626;55.886;2022-07-25T00:19:48;74162.91;;;-145.10;74.68
56334;BME280;42240;53.626;55.886;2022-07-25T00:21:22;74168.84;;;-145.10;75.54
56334;BME280;42240;53.626;55.886;2022-07-25T00:22:56;74160.94;;;-145.10;76.09
56334;BME280;42240;53.626;55.886;2022-07-25T00:24:32;74153.03;;;-145.10;76.20
56334;BME280;42240;53.626;55.886;2022-07-25T00:26:06;74149.06;;;-145.10;76.08
56334;BME280;42240;53.626;55.886;2022-07-25T00:27:40;74147.09;;;-145.10;75.45
56334;BME280;42240;53.626;55.886;2022-07-25T00:29:13;74133.28;;;-145.10;75.34
56334;BME280;42240;53.626;55.886;2022-07-25T00:30:46;74147.09;;;-145.10;76.24
56334;BME280;42240;53.626;55.886;2022-07-25T00:32:20;74145.13;;;-145.10;75.82
56334;BME280;42240;53.626;55.886;2022-07-25T00:33:56;74147.09;;;-145.10;76.14
56334;BME280;42240;53.626;55.886;2022-07-25T00:35:29;74143.16;;;-145.10;75.89
56334;BME280;42240;53.626;55.886;2022-07-25T00:37:02;74147.09;;;-145.10;76.55
56334;BME280;42240;53.626;55.886;2022-07-25T00:38:36;74156.97;;;-145.10;77.28
56334;BME280;42240;53.626;55.886;2022-07-25T00:40:10;74153.03;;;-145.10;77.75
56334;BME280;42240;53.626;55.886;2022-07-25T00:41:43;74170.81;;;-145.10;78.78
56334;BME280;42240;53.626;55.886;2022-07-25T00:43:17;74151.06;;;-145.10;78.05
56334;BME280;42240;53.626;55.886;2022-07-25T00:44:51;74143.16;;;-145.10;77.86
56334;BME280;42240;53.626;55.886;2022-07-25T00:46:24;74127.34;;;-145.10;77.61
56334;BME280;42240;53.626;55.886;2022-07-25T00:47:58;74109.56;;;-145.10;77.56
56334;BME280;42240;53.626;55.886;2022-07-25T00:49:31;74117.47;;;-145.10;78.31
56334;BME280;42240;53.626;55.886;2022-07-25T00:51:05;74117.47;;;-145.10;78.17
56334;BME280;42240;53.626;55.886;2022-07-25T00:52:38;74099.66;;;-145.10;77.23
56334;BME280;42240;53.626;55.886;2022-07-25T00:54:12;74089.78;;;-145.10;77.43
56334;BME280;42240;53.626;55.886;2022-07-25T00:55:45;74070.03;;;-145.10;77.28
56334;BME280;42240;53.626;55.886;2022-07-25T00:57:19;74075.97;;;-145.10;77.57
56334;BME280;42240;53.626;55.886;2022-07-25T00:58:55;74081.88;;;-145.10;77.40
56334;BME280;42240;53.626;55.886;2022-07-25T01:00:29;74048.28;;;-145.10;76.69
56334;BME280;42240;53.626;55.886;2022-07-25T01:02:02;73959.38;;;-145.10;73.70
56334;BME280;42240;53.626;55.886;2022-07-25T01:03:35;73900.09;;;-145.10;71.46
56334;BME280;42240;53.626;55.886;2022-07-25T01:05:09;73830.94;;;-145.10;69.39
56334;BME280;42240;53.626;55.886;2022-07-25T01:06:43;73813.13;;;-145.10;68.58
56334;BME280;42240;53.626;55.886;2022-07-25T01:08:20;73811.16;;;-145.10;68.43
56334;BME280;42240;53.626;55.886;2022-07-25T01:09:57;73765.72;;;-145.10;67.49
56334;BME280;42240;53.626;55.886;2022-07-25T01:11:33;73724.22;;;-145.10;66.02
56334;BME280;42240;53.626;55.886;2022-07-25T01:13:07;73694.59;;;-145.10;64.57
56334;BME280;42240;53.626;55.886;2022-07-25T01:14:40;73662.97;;;-145.10;64.02
56334;BME280;42240;53.626;55.886;2022-07-25T01:16:13;73684.69;;;-145.10;64.25
56334;BME280;42240;53.626;55.886;2022-07-25T01:17:48;73753.84;;;-145.10;66.20
56334;BME280;42240;53.626;55.886;2022-07-25T01:19:22;73823.03;;;-145.10;68.17
56334;BME280;42240;53.626;55.886;2022-07-25T01:20:55;73866.50;;;-145.10;69.44
56334;BME280;42240;53.626;55.886;2022-07-25T01:22:28;73886.25;;;-145.10;70.46
56334;BME280;42240;53.626;55.886;2022-07-25T01:24:03;73939.59;;;-145.10;71.27
56334;BME280;42240;53.626;55.886;2022-07-25T01:25:37;73951.47;;;-145.10;71.72
56334;BME280;42240;53.626;55.886;2022-07-25T01:27:11;73959.38;;;-145.10;71.98
56334;BME280;42240;53.626;55.886;2022-07-25T01:28:49;73969.25;;;-145.10;72.15
56334;BME280;42240;53.626;55.886;2022-07-25T01:30:25;73965.28;;;-145.10;71.65
56334;BME280;42240;53.626;55.886;2022-07-25T01:31:58;73955.41;;;-145.10;71.45
56334;BME280;42240;53.626;55.886;2022-07-25T01:33:31;73951.47;;;-145.10;71.17
56334;BME280;42240;53.626;55.886;2022-07-25T01:35:06;73943.56;;;-145.10;71.80
56334;BME280;42240;53.626;55.886;2022-07-25T01:36:40;73947.50;;;-145.10;72.20
56334;BME280;42240;53.626;55.886;2022-07-25T01:38:13;73943.56;;;-145.10;72.67
56334;BME280;42240;53.626;55.886;2022-07-25T01:39:47;73953.44;;;-145.10;73.12
56334;BME280;42240;53.626;55.886;2022-07-25T01:41:20;73969.25;;;-145.10;73.10
56334;BME280;42240;53.626;55.886;2022-07-25T01:42:56;73979.13;;;-145.10;73.59
56334;BME280;42240;53.626;55.886;2022-07-25T01:44:29;73981.09;;;-145.10;74.17
56334;BME280;42240;53.626;55.886;2022-07-25T01:46:05;74014.69;;;-145.10;75.14
56334;BME280;42240;53.626;55.886;2022-07-25T01:47:38;74060.16;;;-145.10;75.44
56334;BME280;42240;53.626;55.886;2022-07-25T01:49:12;74115.47;;;-145.10;77.79
56334;BME280;42240;53.626;55.886;2022-07-25T01:50:46;74125.38;;;-145.10;78.17
56334;BME280;42240;53.626;55.886;2022-07-25T01:52:20;74109.56;;;-145.10;78.03
56334;BME280;42240;53.626;55.886;2022-07-25T01:53:53;74105.59;;;-145.10;78.42
56334;BME280;42240;53.626;55.886;2022-07-25T01:55:26;74095.72;;;-145.10;78.88
56334;BME280;42240;53.626;55.886;2022-07-25T01:57:03;74095.72;;;-145.10;79.10
56334;BME280;42240;53.626;55.886;2022-07-25T01:58:37;74085.84;;;-145.10;79.47
56334;BME280;42240;53.626;55.886;2022-07-25T02:00:11;74073.97;;;-145.10;80.93
56334;BME280;42240;53.626;55.886;2022-07-25T02:01:45;74062.13;;;-145.10;80.24
56334;BME280;42240;53.626;55.886;2022-07-25T02:03:19;74050.28;;;-145.10;78.52
56334;BME280;42240;53.626;55.886;2022-07-25T02:05:05;74060.16;;;-145.10;78.56
56334;BME280;42240;53.626;55.886;2022-07-25T02:06:41;74030.50;;;-145.10;78.57
56334;BME280;42240;53.626;55.886;2022-07-25T02:08:15;74026.56;;;-145.10;78.54
56334;BME280;42240;53.626;55.886;2022-07-25T02:09:48;74026.56;;;-145.10;78.90
56334;BME280;42240;53.626;55.886;2022-07-25T02:11:28;74014.69;;;-145.10;78.73
56334;BME280;42240;53.626;55.886;2022-07-25T02:13:04;74002.84;;;-145.10;78.61
56334;BME280;42240;53.626;55.886;2022-07-25T02:14:37;73981.09;;;-145.10;78.03
56334;BME280;42240;53.626;55.886;2022-07-25T02:16:14;73979.13;;;-145.10;77.93
56334;BME280;42240;53.626;55.886;2022-07-25T02:17:47;73975.19;;;-145.10;77.70
56334;BME280;42240;53.626;55.886;2022-07-25T02:19:21;73971.22;;;-145.10;77.15
56334;BME280;42240;53.626;55.886;2022-07-25T02:20:55;73959.38;;;-145.10;76.95
56334;BME280;42240;53.626;55.886;2022-07-25T02:22:28;73951.47;;;-145.10;77.36
56334;BME280;42240;53.626;55.886;2022-07-25T02:24:02;73945.53;;;-145.10;76.30
56334;BME280;42240;53.626;55.886;2022-07-25T02:25:36;73931.69;;;-145.10;75.66
56334;BME280;42240;53.626;55.886;2022-07-25T02:27:09;73908.00;;;-145.10;76.06
56334;BME280;42240;53.626;55.886;2022-07-25T02:28:46;73874.41;;;-145.10;74.51
56334;BME280;42240;53.626;55.886;2022-07-25T02:30:22;73868.47;;;-145.10;74.08
56334;BME280;42240;53.626;55.886;2022-07-25T02:31:56;73864.50;;;-145.10;73.19
56334;BME280;42240;53.626;55.886;2022-07-25T02:33:29;73852.66;;;-145.10;73.10
56334;BME280;42240;53.626;55.886;2022-07-25T02:35:04;73844.75;;;-145.10;72.99
56334;BME280;42240;53.626;55.886;2022-07-25T02:36:44;73862.53;;;-145.10;73.67
56334;BME280;42240;53.626;55.886;2022-07-25T02:38:18;73858.59;;;-145.10;73.97
56334;BME280;42240;53.626;55.886;2022-07-25T02:39:52;73868.47;;;-145.10;74.14
56334;BME280;42240;53.626;55.886;2022-07-25T02:41:25;73876.38;;;-145.10;74.24
56334;BME280;42240;53.626;55.886;2022-07-25T02:43:01;73900.09;;;-145.10;74.16
56334;BME280;42240;53.626;55.886;2022-07-25T02:44:38;73957.41;;;-145.10;75.56
56334;BME280;42240;53.626;55.886;2022-07-25T02:46:15;73961.34;;;-145.10;74.88
56334;BME280;42240;53.626;55.886;2022-07-25T02:47:48;73955.41;;;-145.10;74.91
56334;BME280;42240;53.626;55.886;2022-07-25T02:49:22;73963.31;;;-145.10;75.94
56334;BME280;42240;53.626;55.886;2022-07-25T02:50:58;73989.00;;;-145.10;76.61
56334;BME280;42240;53.626;55.886;2022-07-25T02:52:31;73979.13;;;-145.10;75.67
56334;BME280;42240;53.626;55.886;2022-07-25T02:54:05;73947.50;;;-145.10;75.10
56334;BME280;42240;53.626;55.886;2022-07-25T02:55:41;73935.66;;;-145.10;74.00
56334;BME280;42240;53.626;55.886;2022-07-25T02:57:15;73943.56;;;-145.10;74.11
56334;BME280;42240;53.626;55.886;2022-07-25T02:58:49;73963.31;;;-145.10;74.49
56334;BME280;42240;53.626;55.886;2022-07-25T03:00:22;73951.47;;;-145.10;74.27
56334;BME280;42240;53.626;55.886;2022-07-25T03:01:56;73943.56;;;-145.10;73.97
56334;BME280;42240;53.626;55.886;2022-07-25T03:03:29;73935.66;;;-145.10;73.37
56334;BME280;42240;53.626;55.886;2022-07-25T03:05:10;73929.72;;;-145.10;73.58
56334;BME280;42240;53.626;55.886;2022-07-25T03:06:43;73909.97;;;-145.10;73.27
56334;BME280;42240;53.626;55.886;2022-07-25T03:08:16;73911.94;;;-145.10;73.46
56334;BME280;42240;53.626;55.886;2022-07-25T03:09:50;73880.31;;;-145.10;72.50
56334;BME280;42240;53.626;55.886;2022-07-25T03:11:24;73872.41;;;-145.10;73.03
56334;BME280;42240;53.626;55.886;2022-07-25T03:12:57;73817.09;;;-145.10;72.20
56334;BME280;42240;53.626;55.886;2022-07-25T03:14:31;73785.47;;;-145.10;71.55
56334;BME280;42240;53.626;55.886;2022-07-25T03:16:07;73659.00;;;-145.10;68.89
56334;BME280;42240;53.626;55.886;2022-07-25T03:17:41;73542.44;;;-145.10;65.59
56334;BME280;42240;53.626;55.886;2022-07-25T03:19:15;73516.75;;;-145.10;64.09
56334;BME280;42240;53.626;55.886;2022-07-25T03:20:53;73504.91;;;-145.10;63.91
56334;BME280;42240;53.626;55.886;2022-07-25T03:22:26;73544.41;;;-145.10;62.75
56334;BME280;42240;53.626;55.886;2022-07-25T03:24:02;73564.16;;;-145.10;62.67
56334;BME280;42240;53.626;55.886;2022-07-25T03:25:36;73550.34;;;-145.10;63.44
56334;BME280;42240;53.626;55.886;2022-07-25T03:27:09;73526.63;;;-145.10;63.21
56334;BME280;42240;53.626;55.886;2022-07-25T03:28:43;73471.31;;;-145.10;61.88
56334;BME280;42240;53.626;55.886;2022-07-25T03:30:16;73463.41;;;-145.10;60.28
56334;BME280;42240;53.626;55.886;2022-07-25T03:31:50;73423.88;;;-145.10;60.16
56334;BME280;42240;53.626;55.886;2022-07-25T03:33:24;73404.13;;;-145.10;59.58
56334;BME280;42240;53.626;55.886;2022-07-25T03:35:00;73417.94;;;-145.10;60.21
56334;BME280;42240;53.626;55.886;2022-07-25T03:36:34;73431.78;;;-145.10;60.76
56334;BME280;42240;53.626;55.886;2022-07-25T03:38:07;73350.78;;;-145.10;60.42
56334;BME280;42240;53.626;55.886;2022-07-25T03:39:41;73362.63;;;-145.10;59.52
56334;BME280;42240;53.626;55.886;2022-07-25T03:41:14;73372.50;;;-145.10;59.13
56334;BME280;42240;53.626;55.886;2022-07-25T03:42:47;73429.81;;;-145.10;60.85
56334;BME280;42240;53.626;55.886;2022-07-25T03:44:21;73425.84;;;-145.10;60.90
56334;BME280;42240;53.626;55.886;2022-07-25T03:45:55;73433.75;;;-145.10;61.63
56334;BME280;42240;53.626;55.886;2022-07-25T03:47:28;73429.81;;;-145.10;62.42
56334;BME280;42240;53.626;55.886;2022-07-25T03:49:01;73433.75;;;-145.10;61.97
56334;BME280;42240;53.626;55.886;2022-07-25T03:50:35;73457.47;;;-145.10;62.09
56334;BME280;42240;53.626;55.886;2022-07-25T03:52:08;73473.28;;;-145.10;62.06
56334;BME280;42240;53.626;55.886;2022-07-25T03:53:41;73495.00;;;-145.10;62.35
56334;BME280;42240;53.626;55.886;2022-07-25T03:55:33;73520.69;;;-145.10;62.75
56334;BME280;42240;53.626;55.886;2022-07-25T03:57:07;73530.56;;;-145.10;63.50
56334;BME280;42240;53.626;55.886;2022-07-25T03:58:40;73556.25;;;-145.10;63.90
56334;BME280;42240;53.626;55.886;2022-07-25T04:00:13;73574.03;;;-145.10;64.51
56334;BME280;42240;53.626;55.886;2022-07-25T04:01:47;73544.41;;;-145.10;64.12
56334;BME280;42240;53.626;55.886;2022-07-25T04:03:21;73510.81;;;-145.10;63.05
56334;BME280;42240;53.626;55.886;2022-07-25T04:04:54;73504.91;;;-145.10;63.10
56334;BME280;42240;53.626;55.886;2022-07-25T04:06:28;73497.00;;;-145.10;63.27
56334;BME280;42240;53.626;55.886;2022-07-25T04:08:01;73508.84;;;-145.10;63.60
56334;BME280;42240;53.626;55.886;2022-07-25T04:09:36;73536.50;;;-145.10;63.70
56334;BME280;42240;53.626;55.886;2022-07-25T04:11:09;73548.38;;;-145.10;64.18
56334;BME280;42240;53.626;55.886;2022-07-25T04:12:42;73552.31;;;-145.10;64.68
56334;BME280;42240;53.626;55.886;2022-07-25T04:14:16;73581.94;;;-145.10;64.78
56334;BME280;42240;53.626;55.886;2022-07-25T04:15:49;73576.03;;;-145.10;64.95
56334;BME280;42240;53.626;55.886;2022-07-25T04:17:23;73597.75;;;-145.10;65.25
56334;BME280;42240;53.626;55.886;2022-07-25T04:18:57;73595.78;;;-145.10;64.94
56334;BME280;42240;53.626;55.886;2022-07-25T04:20:33;73607.63;;;-145.10;65.22
56334;BME280;42240;53.626;55.886;2022-07-25T04:22:09;73607.63;;;-145.10;64.74
56334;BME280;42240;53.626;55.886;2022-07-25T04:23:42;73619.50;;;-145.10;65.03
56334;BME280;42240;53.626;55.886;2022-07-25T04:25:15;73627.41;;;-145.10;65.03
56334;BME280;42240;53.626;55.886;2022-07-25T04:26:49;73623.44;;;-145.10;64.94
56334;BME280;42240;53.626;55.886;2022-07-25T04:28:26;73651.09;;;-145.10;65.69
56334;BME280;42240;53.626;55.886;2022-07-25T04:29:59;73647.16;;;-145.10;65.51
56334;BME280;42240;53.626;55.886;2022-07-25T04:31:34;73633.31;;;-145.10;64.58
56334;BME280;42240;53.626;55.886;2022-07-25T04:33:11;73635.31;;;-145.10;64.74
56334;BME280;42240;53.626;55.886;2022-07-25T04:34:45;73649.13;;;-145.10;65.48
56334;BME280;42240;53.626;55.886;2022-07-25T04:36:18;73653.09;;;-145.10;65.92
56334;BME280;42240;53.626;55.886;2022-07-25T04:37:52;73647.16;;;-145.10;65.75
56334;BME280;42240;53.626;55.886;2022-07-25T04:39:25;73647.16;;;-145.10;65.50
56334;BME280;42240;53.626;55.886;2022-07-25T04:40:59;73623.44;;;-145.10;65.16
56334;BME280;42240;53.626;55.886;2022-07-25T04:42:32;73639.25;;;-145.10;65.55
56334;BME280;42240;53.626;55.886;2022-07-25T04:44:05;73643.19;;;-145.10;65.20
56334;BME280;42240;53.626;55.886;2022-07-25T04:45:40;73659.00;;;-145.10;65.63
56334;BME280;42240;53.626;55.886;2022-07-25T04:47:14;73662.97;;;-145.10;65.92
56334;BME280;42240;53.626;55.886;2022-07-25T04:48:47;73649.13;;;-145.10;65.12
56334;BME280;42240;53.626;55.886;2022-07-25T04:50:21;73625.41;;;-145.10;64.59
56334;BME280;42240;53.626;55.886;2022-07-25T04:51:56;73619.50;;;-145.10;64.45
56334;BME280;42240;53.626;55.886;2022-07-25T04:53:29;73597.75;;;-145.10;64.07
56334;BME280;42240;53.626;55.886;2022-07-25T04:55:03;73595.78;;;-145.10;63.36
56334;BME280;42240;53.626;55.886;2022-07-25T04:56:37;73603.69;;;-145.10;63.50
56334;BME280;42240;53.626;55.886;2022-07-25T04:58:10;73611.59;;;-145.10;63.26
56334;BME280;42240;53.626;55.886;2022-07-25T04:59:43;73627.41;;;-145.10;63.21
56334;BME280;42240;53.626;55.886;2022-07-25T05:01:17;73627.41;;;-145.10;63.38
56334;BME280;42240;53.626;55.886;2022-07-25T05:02:50;73666.91;;;-145.10;64.61
56334;BME280;42240;53.626;55.886;2022-07-25T05:04:24;73688.66;;;-145.10;65.60
56334;BME280;42240;53.626;55.886;2022-07-25T05:05:58;73670.88;;;-145.10;65.57
56334;BME280;42240;53.626;55.886;2022-07-25T05:07:31;73678.78;;;-145.10;65.16
56334;BME280;42240;53.626;55.886;2022-07-25T05:09:04;73670.88;;;-145.10;65.37
56334;BME280;42240;53.626;55.886;2022-07-25T05:10:38;73651.09;;;-145.10;65.56
56334;BME280;42240;53.626;55.886;2022-07-25T05:12:11;73635.31;;;-145.10;65.18
56334;BME280;42240;53.626;55.886;2022-07-25T05:13:44;73615.53;;;-145.10;64.88
56334;BME280;42240;53.626;55.886;2022-07-25T05:15:18;73635.31;;;-145.10;65.37
56334;BME280;42240;53.626;55.886;2022-07-25T05:16:52;73615.53;;;-145.10;65.42
56334;BME280;42240;53.626;55.886;2022-07-25T05:18:25;73613.56;;;-145.10;65.31
56334;BME280;42240;53.626;55.886;2022-07-25T05:19:59;73609.63;;;-145.10;66.08
56334;BME280;42240;53.626;55.886;2022-07-25T05:21:34;73613.56;;;-145.10;65.37
56334;BME280;42240;53.626;55.886;2022-07-25T05:23:07;73643.19;;;-145.10;66.48
56334;BME280;42240;53.626;55.886;2022-07-25T05:24:41;73637.28;;;-145.10;66.84
56334;BME280;42240;53.626;55.886;2022-07-25T05:26:13;73621.47;;;-145.10;67.13
56334;BME280;42240;53.626;55.886;2022-07-25T05:27:47;73631.34;;;-145.10;66.91
56334;BME280;42240;53.626;55.886;2022-07-25T05:29:20;73627.41;;;-145.10;67.06
56334;BME280;42240;53.626;55.886;2022-07-25T05:30:54;73627.41;;;-145.10;67.09
56334;BME280;42240;53.626;55.886;2022-07-25T05:32:27;73619.50;;;-145.10;66.82
56334;BME280;42240;53.626;55.886;2022-07-25T05:34:01;73615.53;;;-145.10;65.99
56334;BME280;42240;53.626;55.886;2022-07-25T05:35:35;73615.53;;;-145.10;66.52
56334;BME280;42240;53.626;55.886;2022-07-25T05:37:09;73627.41;;;-145.10;66.83
56334;BME280;42240;53.626;55.886;2022-07-25T05:38:42;73623.44;;;-145.10;65.79
56334;BME280;42240;53.626;55.886;2022-07-25T05:40:15;73619.50;;;-145.10;66.34
56334;BME280;42240;53.626;55.886;2022-07-25T05:41:53;73613.56;;;-145.10;66.52
56334;BME280;42240;53.626;55.886;2022-07-25T05:43:26;73643.19;;;-145.10;67.03
56334;BME280;42240;53.626;55.886;2022-07-25T05:45:00;73629.38;;;-145.10;66.63
56334;BME280;42240;53.626;55.886;2022-07-25T05:46:35;73627.41;;;-145.10;66.92
56334;BME280;42240;53.626;55.886;2022-07-25T05:48:08;73639.25;;;-145.10;67.20
56334;BME280;42240;53.626;55.886;2022-07-25T05:49:42;73625.41;;;-145.10;67.23
56334;BME280;42240;53.626;55.886;2022-07-25T05:51:16;73611.59;;;-145.10;66.92
56334;BME280;42240;53.626;55.886;2022-07-25T05:52:49;73623.44;;;-145.10;67.92
56334;BME280;42240;53.626;55.886;2022-07-25T05:54:22;73607.63;;;-145.10;67.64
56334;BME280;42240;53.626;55.886;2022-07-25T05:55:58;73627.41;;;-145.10;68.28
56334;BME280;42240;53.626;55.886;2022-07-25T05:57:32;73627.41;;;-145.10;68.55
56334;BME280;42240;53.626;55.886;2022-07-25T05:59:06;73627.41;;;-145.10;68.76
56334;BME280;42240;53.626;55.886;2022-07-25T06:00:40;73637.28;;;-145.10;69.10
56334;BME280;42240;53.626;55.886;2022-07-25T06:02:13;73621.47;;;-145.10;68.66
56334;BME280;42240;53.626;55.886;2022-07-25T06:03:47;73603.69;;;-145.10;68.61
56334;BME280;42240;53.626;55.886;2022-07-25T06:05:21;73631.34;;;-145.10;68.61
56334;BME280;42240;53.626;55.886;2022-07-25T06:06:54;73643.19;;;-145.10;69.11
56334;BME280;42240;53.626;55.886;2022-07-25T06:08:28;73643.19;;;-145.10;68.92
56334;BME280;42240;53.626;55.886;2022-07-25T06:10:04;73639.25;;;-145.10;68.52
56334;BME280;42240;53.626;55.886;2022-07-25T06:11:38;73629.38;;;-145.10;68.37
56334;BME280;42240;53.626;55.886;2022-07-25T06:13:26;73631.34;;;-145.10;68.46
56334;BME280;42240;53.626;55.886;2022-07-25T06:14:59;73603.69;;;-145.10;68.24
56334;BME280;42240;53.626;55.886;2022-07-25T06:16:33;73554.28;;;-145.10;66.94
56334;BME280;42240;53.626;55.886;2022-07-25T06:18:06;73520.69;;;-145.10;65.62
56334;BME280;42240;53.626;55.886;2022-07-25T06:19:42;73459.44;;;-145.10;64.45
56334;BME280;42240;53.626;55.886;2022-07-25T06:21:15;73451.53;;;-145.10;63.16
56334;BME280;42240;53.626;55.886;2022-07-25T06:22:49;73386.34;;;-145.10;61.66
56334;BME280;42240;53.626;55.886;2022-07-25T06:24:23;73390.28;;;-145.10;61.61
56334;BME280;42240;53.626;55.886;2022-07-25T06:25:56;73388.31;;;-145.10;60.62
56334;BME280;42240;53.626;55.886;2022-07-25T06:27:29;73386.34;;;-145.10;59.95
56334;BME280;42240;53.626;55.886;2022-07-25T06:29:03;73386.34;;;-145.10;59.57
56334;BME280;42240;53.626;55.886;2022-07-25T06:30:36;73382.38;;;-145.10;60.16
56334;BME280;42240;53.626;55.886;2022-07-25T06:32:10;73386.34;;;-145.10;59.83
56334;BME280;42240;53.626;55.886;2022-07-25T06:33:43;73384.38;;;-145.10;58.41
56334;BME280;42240;53.626;55.886;2022-07-25T06:35:17;73348.81;;;-145.10;58.12
56334;BME280;42240;53.626;55.886;2022-07-25T06:36:51;73350.78;;;-145.10;57.58
56334;BME280;42240;53.626;55.886;2022-07-25T06:38:24;73331.03;;;-145.10;57.24
56334;BME280;42240;53.626;55.886;2022-07-25T06:39:59;73374.47;;;-145.10;57.92
56334;BME280;42240;53.626;55.886;2022-07-25T06:41:32;73374.47;;;-145.10;58.69
56334;BME280;42240;53.626;55.886;2022-07-25T06:43:06;73342.88;;;-145.10;57.70
56334;BME280;42240;53.626;55.886;2022-07-25T06:44:39;73267.78;;;-145.10;56.61
56334;BME280;42240;53.626;55.886;2022-07-25T06:46:13;73242.09;;;-145.10;55.53
56334;BME280;42240;53.626;55.886;2022-07-25T06:47:46;73224.31;;;-145.10;55.84
56334;BME280;42240;53.626;55.886;2022-07-25T06:49:20;73250.00;;;-145.10;56.61
56334;BME280;42240;53.626;55.886;2022-07-25T06:50:54;73267.78;;;-145.10;57.52
56334;BME280;42240;53.626;55.886;2022-07-25T06:52:27;73291.50;;;-145.10;56.59
56334;BME280;42240;53.626;55.886;2022-07-25T06:54:00;73334.97;;;-145.10;58.00
56334;BME280;42240;53.626;55.886;2022-07-25T06:55:34;73301.38;;;-145.10;57.86
56334;BME280;42240;53.626;55.886;2022-07-25T06:57:08;73285.56;;;-145.10;57.17
56334;BME280;42240;53.626;55.886;2022-07-25T06:58:41;73165.06;;;-145.10;54.96
56334;BME280;42240;53.626;55.886;2022-07-25T07:00:14;73097.88;;;-145.10;53.17
56334;BME280;42240;53.626;55.886;2022-07-25T07:01:48;73044.53;;;-145.10;51.91
56334;BME280;42240;53.626;55.886;2022-07-25T07:03:23;72995.16;;;-145.10;50.72
56334;BME280;42240;53.626;55.886;2022-07-25T07:04:56;72987.25;;;-145.10;50.08
56334;BME280;42240;53.626;55.886;2022-07-25T07:06:30;73070.22;;;-145.10;51.45
56334;BME280;42240;53.626;55.886;2022-07-25T07:08:03;73105.78;;;-145.10;52.35
56334;BME280;42240;53.626;55.886;2022-07-25T07:09:37;73040.59;;;-145.10;51.42
56334;BME280;42240;53.626;55.886;2022-07-25T07:11:10;73022.81;;;-145.10;50.48
56334;BME280;42240;53.626;55.886;2022-07-25T07:12:45;73018.84;;;-145.10;51.09
56334;BME280;42240;53.626;55.886;2022-07-25T07:14:20;72963.53;;;-145.10;49.99
56334;BME280;42240;53.626;55.886;2022-07-25T07:15:54;72967.50;;;-145.10;50.30
56334;BME280;42240;53.626;55.886;2022-07-25T07:17:27;72947.72;;;-145.10;50.09
56334;BME280;42240;53.626;55.886;2022-07-25T07:19:01;72979.34;;;-145.10;51.29
56334;BME280;42240;53.626;55.886;2022-07-25T07:20:35;72892.41;;;-145.10;48.76
56334;BME280;42240;53.626;55.886;2022-07-25T07:22:08;72866.72;;;-145.10;48.87
56334;BME280;42240;53.626;55.886;2022-07-25T07:23:41;72793.63;;;-145.10;47.83
56334;BME280;42240;53.626;55.886;2022-07-25T07:25:16;72821.28;;;-145.10;45.46
56334;BME280;42240;53.626;55.886;2022-07-25T07:26:51;72856.84;;;-145.10;45.71
56334;BME280;42240;53.626;55.886;2022-07-25T07:28:25;72884.50;;;-145.10;46.74
56334;BME280;42240;53.626;55.886;2022-07-25T07:29:58;72912.19;;;-145.10;46.82
56334;BME280;42240;53.626;55.886;2022-07-25T07:31:32;73030.72;;;-145.10;47.76
56334;BME280;42240;53.626;55.886;2022-07-25T07:33:06;73008.97;;;-145.10;48.99
56334;BME280;42240;53.626;55.886;2022-07-25T07:34:42;73056.41;;;-145.10;49.98
56334;BME280;42240;53.626;55.886;2022-07-25T07:36:15;73064.28;;;-145.10;50.32
56334;BME280;42240;53.626;55.886;2022-07-25T07:37:48;73089.97;;;-145.10;50.77
56334;BME280;42240;53.626;55.886;2022-07-25T07:39:22;73038.63;;;-145.10;50.80
56334;BME280;42240;53.626;55.886;2022-07-25T07:40:56;73026.75;;;-145.10;49.45
56334;BME280;42240;53.626;55.886;2022-07-25T07:42:39;73032.69;;;-145.10;49.58
56334;BME280;42240;53.626;55.886;2022-07-25T07:44:13;73101.84;;;-145.10;50.80
56334;BME280;42240;53.626;55.886;2022-07-25T07:45:49;73034.66;;;-145.10;50.14
56334;BME280;42240;53.626;55.886;2022-07-25T07:47:23;73030.72;;;-145.10;50.55
56334;BME280;42240;53.626;55.886;2022-07-25T07:48:57;73054.41;;;-145.10;50.82
56334;BME280;42240;53.626;55.886;2022-07-25T07:50:31;72975.38;;;-145.10;49.81
56334;BME280;42240;53.626;55.886;2022-07-25T07:52:04;72912.19;;;-145.10;49.02
56334;BME280;42240;53.626;55.886;2022-07-25T07:53:38;72916.13;;;-145.10;48.11
56334;BME280;42240;53.626;55.886;2022-07-25T07:55:30;72916.13;;;-145.10;47.94
56334;BME280;42240;53.626;55.886;2022-07-25T07:57:16;72902.28;;;-145.10;48.85
56334;BME280;42240;53.626;55.886;2022-07-25T07:58:52;72876.63;;;-145.10;48.03
56334;BME280;42240;53.626;55.886;2022-07-25T08:00:26;72886.50;;;-145.10;47.64